Time;durP1;ratioP1;P1;durP2;ratioP2;P2;SDS_P1;SDS_P2;PMS_P1;PMS_P2;Temp;Humidity;BMP_temperature;BMP_pressure;BME280_temperature;BME280_humidity;BME280_pressure;Samples;Min_cycle;Max_cycle;Signal;HPM_P1;HPM_P2
2024/04/11 00:02:23;;;;;;;3.33;2.50;;;;;;;;;;5444430;26;20233;-61
2024/04/11 00:04:49;;;;;;;3.63;2.10;;;;;;;;;;5449800;26;20253;-62
2024/04/11 00:07:15;;;;;;;3.63;2.40;;;;;;;;;;5428812;26;20243;-62
2024/04/11 00:09:42;;;;;;;3.50;2.47;;;;;;;;;;5441928;26;20230;-62
2024/04/11 00:12:08;;;;;;;6.73;2.90;;;;;;;;;;5447704;26;20579;-61
2024/04/11 00:14:34;;;;;;;6.80;2.97;;;;;;;;;;5426127;26;20270;-61
2024/04/11 00:17:00;;;;;;;5.60;2.43;;;;;;;;;;5436463;26;20272;-61
2024/04/11 00:19:26;;;;;;;4.63;2.20;;;;;;;;;;5450999;26;20564;-62
2024/04/11 00:21:52;;;;;;;3.30;1.87;;;;;;;;;;5444510;26;20712;-62
2024/04/11 00:24:18;;;;;;;7.13;2.73;;;;;;;;;;5439362;26;20339;-60
2024/04/11 00:26:46;;;;;;;3.53;2.30;;;;;;;;;;5424869;26;20231;-61
2024/04/11 00:29:12;;;;;;;7.90;2.33;;;;;;;;;;5428445;26;20729;-61
2024/04/11 00:31:39;;;;;;;3.57;2.33;;;;;;;;;;5432162;26;20276;-60
2024/04/11 00:34:15;;;;;;;4.67;2.30;;;;;;;;;;5443823;26;20863;-62
2024/04/11 00:36:44;;;;;;;6.13;2.43;;;;;;;;;;5442885;26;20234;-61
2024/04/11 00:39:16;;;;;;;5.87;2.53;;;;;;;;;;5439031;26;20349;-61
2024/04/11 00:41:42;;;;;;;5.03;2.90;;;;;;;;;;5435302;26;20233;-60
2024/04/11 00:44:08;;;;;;;5.17;2.73;;;;;;;;;;5414489;26;20226;-61
2024/04/11 00:46:34;;;;;;;3.10;2.20;;;;;;;;;;5428754;26;20230;-61
2024/04/11 00:49:00;;;;;;;7.20;2.37;;;;;;;;;;5451787;26;20280;-61
2024/04/11 00:51:26;;;;;;;5.37;2.43;;;;;;;;;;5432203;26;20241;-61
2024/04/11 00:53:53;;;;;;;3.03;2.17;;;;;;;;;;5433552;26;20234;-61
2024/04/11 00:56:19;;;;;;;5.53;2.50;;;;;;;;;;5430739;26;20720;-60
2024/04/11 00:58:45;;;;;;;5.13;2.53;;;;;;;;;;5445803;26;21265;-60
2024/04/11 01:01:11;;;;;;;4.20;2.27;;;;;;;;;;5416884;26;20226;-61
2024/04/11 01:03:38;;;;;;;3.57;2.30;;;;;;;;;;5434841;26;20332;-60
2024/04/11 01:06:04;;;;;;;5.07;2.83;;;;;;;;;;5432017;26;20276;-61
2024/04/11 01:08:30;;;;;;;4.93;2.30;;;;;;;;;;5445665;26;20929;-61
2024/04/11 01:10:56;;;;;;;6.07;2.67;;;;;;;;;;5429775;26;20243;-60
2024/04/11 01:13:23;;;;;;;2.87;2.20;;;;;;;;;;5444009;26;20235;-63
2024/04/11 01:15:50;;;;;;;3.83;2.17;;;;;;;;;;5447959;26;20247;-63
2024/04/11 01:18:16;;;;;;;4.30;2.17;;;;;;;;;;5452240;26;20229;-63
2024/04/11 01:20:43;;;;;;;3.73;2.53;;;;;;;;;;5432525;26;20674;-63
2024/04/11 01:23:09;;;;;;;3.67;2.40;;;;;;;;;;5437293;26;20234;-61
2024/04/11 01:25:35;;;;;;;3.37;2.23;;;;;;;;;;5413883;26;20634;-61
2024/04/11 01:28:01;;;;;;;4.97;2.13;;;;;;;;;;5434117;26;20644;-61
2024/04/11 01:30:28;;;;;;;5.03;2.23;;;;;;;;;;5418270;26;20369;-61
2024/04/11 01:33:00;;;;;;;3.70;2.30;;;;;;;;;;5427646;26;20280;-60
2024/04/11 01:35:27;;;;;;;4.37;2.30;;;;;;;;;;5425137;26;20229;-61
2024/04/11 01:37:55;;;;;;;4.13;2.13;;;;;;;;;;5449368;26;20234;-60
2024/04/11 01:40:21;;;;;;;5.10;1.97;;;;;;;;;;5435870;26;20238;-61
2024/04/11 01:42:47;;;;;;;3.90;2.37;;;;;;;;;;5429377;26;20268;-61
2024/04/11 01:45:13;;;;;;;3.80;2.00;;;;;;;;;;5416677;26;20647;-60
2024/04/11 01:47:41;;;;;;;5.57;2.47;;;;;;;;;;5448703;26;20701;-62
2024/04/11 01:50:07;;;;;;;3.30;2.13;;;;;;;;;;5429758;26;20733;-61
2024/04/11 01:52:33;;;;;;;2.90;2.10;;;;;;;;;;5436860;26;20226;-60
2024/04/11 01:55:01;;;;;;;3.30;2.20;;;;;;;;;;5442785;26;20261;-60
2024/04/11 01:57:27;;;;;;;2.70;1.80;;;;;;;;;;5434945;26;20747;-61
2024/04/11 01:59:55;;;;;;;4.07;2.17;;;;;;;;;;5412875;26;20261;-60
2024/04/11 02:02:21;;;;;;;3.93;1.80;;;;;;;;;;5425859;26;20314;-61
2024/04/11 02:04:48;;;;;;;3.60;2.03;;;;;;;;;;5415753;26;20234;-60
2024/04/11 02:07:15;;;;;;;3.90;2.20;;;;;;;;;;5421480;26;20281;-62
2024/04/11 02:09:41;;;;;;;3.37;2.33;;;;;;;;;;5423459;26;20222;-61
2024/04/11 02:12:07;;;;;;;4.43;2.17;;;;;;;;;;5427613;26;20784;-61
2024/04/11 02:14:33;;;;;;;2.57;2.00;;;;;;;;;;5448561;26;20225;-61
2024/04/11 02:16:59;;;;;;;4.90;2.00;;;;;;;;;;5446518;26;20272;-61
2024/04/11 02:19:26;;;;;;;5.83;1.80;;;;;;;;;;5432623;26;21146;-62
2024/04/11 02:21:52;;;;;;;3.63;2.00;;;;;;;;;;5428965;26;20287;-61
2024/04/11 02:24:19;;;;;;;4.37;2.20;;;;;;;;;;5415735;26;20943;-60
2024/04/11 02:26:48;;;;;;;5.30;2.00;;;;;;;;;;5423253;26;20233;-61
2024/04/11 02:29:14;;;;;;;5.50;2.17;;;;;;;;;;5419690;26;20290;-61
2024/04/11 02:31:41;;;;;;;3.07;2.07;;;;;;;;;;5428413;26;20242;-62
2024/04/11 02:34:07;;;;;;;2.13;1.80;;;;;;;;;;5418356;26;20233;-63
2024/04/11 02:36:34;;;;;;;4.60;2.67;;;;;;;;;;5430467;26;20230;-63
2024/04/11 02:39:01;;;;;;;3.73;1.43;;;;;;;;;;5413212;26;20242;-63
2024/04/11 02:41:27;;;;;;;4.77;2.70;;;;;;;;;;5419484;26;20290;-63
2024/04/11 02:43:55;;;;;;;3.13;2.30;;;;;;;;;;5412893;26;20277;-64
2024/04/11 02:46:21;;;;;;;3.47;2.10;;;;;;;;;;5415685;26;20369;-63
2024/04/11 02:48:47;;;;;;;3.77;2.10;;;;;;;;;;5417459;26;20815;-63
2024/04/11 02:51:14;;;;;;;2.77;2.10;;;;;;;;;;5416911;26;20229;-63
2024/04/11 02:53:40;;;;;;;3.17;1.97;;;;;;;;;;5422888;26;20338;-62
2024/04/11 02:56:09;;;;;;;4.83;1.90;;;;;;;;;;5421206;26;20231;-62
2024/04/11 02:58:35;;;;;;;3.53;2.17;;;;;;;;;;5430872;26;20750;-62
2024/04/11 03:01:03;;;;;;;4.07;2.10;;;;;;;;;;5428971;26;20226;-62
2024/04/11 03:03:34;;;;;;;2.80;1.77;;;;;;;;;;5449953;26;20598;-62
2024/04/11 03:06:12;;;;;;;5.33;2.07;;;;;;;;;;5433157;26;20775;-63
2024/04/11 03:08:42;;;;;;;4.70;1.97;;;;;;;;;;5416568;26;20234;-63
2024/04/11 03:11:09;;;;;;;3.47;1.80;;;;;;;;;;5416222;26;20603;-63
2024/04/11 03:13:35;;;;;;;2.40;1.97;;;;;;;;;;5450119;26;20237;-63
2024/04/11 03:16:02;;;;;;;3.57;1.80;;;;;;;;;;5443682;26;20778;-63
2024/04/11 03:18:29;;;;;;;4.23;2.07;;;;;;;;;;5451834;26;20214;-63
2024/04/11 03:20:55;;;;;;;2.93;1.83;;;;;;;;;;5424798;26;20273;-63
2024/04/11 03:23:22;;;;;;;5.03;1.83;;;;;;;;;;5423718;26;20332;-63
2024/04/11 03:25:49;;;;;;;2.73;1.60;;;;;;;;;;5426190;26;20271;-63
2024/04/11 03:28:16;;;;;;;4.17;1.90;;;;;;;;;;5436580;26;20291;-63
2024/04/11 03:30:52;;;;;;;3.07;2.23;;;;;;;;;;5414811;26;20356;-63
2024/04/11 03:33:18;;;;;;;4.10;1.97;;;;;;;;;;5422873;26;20235;-63
2024/04/11 03:35:52;;;;;;;3.23;1.63;;;;;;;;;;5435753;26;20273;-63
2024/04/11 03:38:18;;;;;;;5.57;1.77;;;;;;;;;;5449381;26;20267;-63
2024/04/11 03:40:53;;;;;;;3.13;1.50;;;;;;;;;;5432926;26;20341;-63
2024/04/11 03:43:21;;;;;;;1.80;1.70;;;;;;;;;;5442900;26;20670;-63
2024/04/11 03:45:47;;;;;;;2.27;1.63;;;;;;;;;;5436257;26;20242;-63
2024/04/11 03:48:13;;;;;;;5.80;2.53;;;;;;;;;;5444688;26;20362;-63
2024/04/11 03:50:39;;;;;;;4.00;1.60;;;;;;;;;;5418696;26;20269;-63
2024/04/11 03:53:05;;;;;;;3.57;1.93;;;;;;;;;;5418304;26;20261;-63
2024/04/11 03:55:31;;;;;;;3.13;1.60;;;;;;;;;;5430620;26;20224;-63
2024/04/11 03:58:00;;;;;;;1.60;1.50;;;;;;;;;;5443539;26;20563;-63
2024/04/11 04:00:26;;;;;;;4.37;1.77;;;;;;;;;;5439985;26;20284;-63
2024/04/11 04:02:54;;;;;;;2.70;1.50;;;;;;;;;;5442330;26;20225;-64
2024/04/11 04:05:20;;;;;;;3.07;1.70;;;;;;;;;;5436477;26;20227;-62
2024/04/11 04:07:46;;;;;;;2.93;1.53;;;;;;;;;;5448176;26;20229;-62
2024/04/11 04:10:12;;;;;;;3.87;1.87;;;;;;;;;;5449802;26;20329;-61
2024/04/11 04:12:38;;;;;;;3.27;1.63;;;;;;;;;;5449294;26;20242;-62
2024/04/11 04:15:08;;;;;;;3.63;1.67;;;;;;;;;;5450223;26;20860;-62
2024/04/11 04:17:34;;;;;;;3.77;1.70;;;;;;;;;;5433599;26;20238;-62
2024/04/11 04:20:00;;;;;;;3.57;1.40;;;;;;;;;;5442730;26;20234;-61
2024/04/11 04:22:27;;;;;;;4.73;1.93;;;;;;;;;;5450309;26;20561;-62
2024/04/11 04:24:53;;;;;;;3.90;1.77;;;;;;;;;;5450425;26;20297;-61
2024/04/11 04:27:19;;;;;;;5.10;2.00;;;;;;;;;;5448869;26;20593;-63
2024/04/11 04:29:46;;;;;;;2.50;1.53;;;;;;;;;;5448877;26;20233;-63
2024/04/11 04:32:14;;;;;;;3.07;1.50;;;;;;;;;;5433020;26;20349;-63
2024/04/11 04:34:40;;;;;;;4.43;2.00;;;;;;;;;;5427740;26;20282;-62
2024/04/11 04:37:06;;;;;;;2.23;1.37;;;;;;;;;;5449226;26;20225;-63
2024/04/11 04:39:37;;;;;;;3.03;1.70;;;;;;;;;;5429161;26;20234;-64
2024/04/11 04:42:04;;;;;;;2.90;1.67;;;;;;;;;;5425681;26;20243;-63
2024/04/11 04:44:30;;;;;;;2.73;1.80;;;;;;;;;;5444056;26;20230;-63
2024/04/11 04:46:56;;;;;;;3.57;1.40;;;;;;;;;;5447000;26;20230;-63
2024/04/11 04:49:22;;;;;;;3.50;1.80;;;;;;;;;;5445408;26;20239;-63
2024/04/11 04:51:48;;;;;;;3.00;1.60;;;;;;;;;;5432507;26;20275;-63
2024/04/11 04:54:16;;;;;;;3.83;2.00;;;;;;;;;;5427333;26;20239;-63
2024/04/11 04:56:43;;;;;;;3.47;1.63;;;;;;;;;;5419515;26;20596;-63
2024/04/11 04:59:09;;;;;;;2.83;1.73;;;;;;;;;;5422046;26;20222;-63
2024/04/11 05:01:36;;;;;;;2.83;1.60;;;;;;;;;;5418360;26;20379;-62
2024/04/11 05:04:02;;;;;;;3.97;1.47;;;;;;;;;;5428607;26;20285;-63
2024/04/11 05:06:32;;;;;;;4.00;1.80;;;;;;;;;;5435470;26;20822;-63
2024/04/11 05:08:58;;;;;;;4.17;1.80;;;;;;;;;;5427620;26;20226;-63
2024/04/11 05:11:31;;;;;;;2.63;1.50;;;;;;;;;;5428807;26;20231;-62
2024/04/11 05:13:57;;;;;;;3.03;1.60;;;;;;;;;;5431364;26;20704;-64
2024/04/11 05:16:23;;;;;;;2.67;1.53;;;;;;;;;;5424409;26;20724;-63
2024/04/11 05:18:51;;;;;;;2.67;1.90;;;;;;;;;;5417241;26;20329;-62
2024/04/11 05:21:19;;;;;;;3.90;1.97;;;;;;;;;;5424998;26;20245;-63
2024/04/11 05:23:45;;;;;;;5.30;2.00;;;;;;;;;;5449300;26;20303;-63
2024/04/11 05:26:15;;;;;;;3.83;2.10;;;;;;;;;;5436512;26;20273;-63
2024/04/11 05:28:47;;;;;;;3.50;1.97;;;;;;;;;;5425944;26;20297;-63
2024/04/11 05:31:16;;;;;;;3.90;2.33;;;;;;;;;;5423594;26;20222;-63
2024/04/11 05:33:44;;;;;;;3.47;1.83;;;;;;;;;;5413976;26;20281;-61
2024/04/11 05:36:12;;;;;;;5.70;2.10;;;;;;;;;;5422484;26;20728;-62
2024/04/11 05:38:41;;;;;;;3.97;2.00;;;;;;;;;;5434926;26;20666;-61
2024/04/11 05:41:09;;;;;;;5.93;2.40;;;;;;;;;;5437101;26;20263;-60
2024/04/11 05:43:39;;;;;;;6.40;1.90;;;;;;;;;;5446621;26;20217;-60
2024/04/11 05:46:05;;;;;;;2.60;1.93;;;;;;;;;;5448289;26;20252;-62
2024/04/11 05:48:35;;;;;;;3.17;2.13;;;;;;;;;;5434452;26;20554;-61
2024/04/11 05:51:05;;;;;;;5.40;2.10;;;;;;;;;;5412728;26;20765;-63
2024/04/11 05:53:31;;;;;;;3.33;2.07;;;;;;;;;;5411642;26;20270;-62
2024/04/11 05:55:57;;;;;;;3.00;1.87;;;;;;;;;;5419419;26;20273;-62
2024/04/11 05:58:24;;;;;;;2.77;2.20;;;;;;;;;;5448438;26;20240;-61
2024/04/11 06:00:50;;;;;;;4.33;2.00;;;;;;;;;;5446289;26;20229;-61
2024/04/11 06:03:16;;;;;;;3.23;1.83;;;;;;;;;;5448740;26;20562;-61
2024/04/11 06:05:42;;;;;;;3.70;1.73;;;;;;;;;;5431316;26;20234;-61
2024/04/11 06:08:09;;;;;;;4.20;2.03;;;;;;;;;;5417376;26;20978;-61
2024/04/11 06:10:35;;;;;;;2.17;1.77;;;;;;;;;;5423306;26;20758;-62
2024/04/11 06:13:02;;;;;;;7.93;2.03;;;;;;;;;;5424577;26;20612;-61
2024/04/11 06:15:29;;;;;;;5.30;2.63;;;;;;;;;;5440534;26;20221;-60
2024/04/11 06:17:55;;;;;;;2.97;2.10;;;;;;;;;;5426214;26;20273;-60
2024/04/11 06:20:24;;;;;;;5.23;2.23;;;;;;;;;;5414470;26;20279;-61
2024/04/11 06:22:52;;;;;;;3.37;2.27;;;;;;;;;;5411730;26;20230;-60
2024/04/11 06:25:19;;;;;;;5.70;2.07;;;;;;;;;;5416599;26;20234;-60
2024/04/11 06:27:46;;;;;;;3.37;2.10;;;;;;;;;;5425122;26;20351;-61
2024/04/11 06:30:14;;;;;;;3.77;2.10;;;;;;;;;;5418635;26;20291;-62
2024/04/11 06:32:43;;;;;;;5.33;2.33;;;;;;;;;;5420263;26;20238;-62
2024/04/11 06:35:11;;;;;;;6.73;3.00;;;;;;;;;;5412226;26;20223;-62
2024/04/11 06:37:37;;;;;;;5.57;1.77;;;;;;;;;;5426591;26;20331;-62
2024/04/11 06:40:12;;;;;;;3.13;2.17;;;;;;;;;;5421674;26;20293;-63
2024/04/11 06:42:46;;;;;;;3.53;2.13;;;;;;;;;;5433509;26;20233;-62
2024/04/11 06:45:16;;;;;;;4.27;2.40;;;;;;;;;;5447925;26;20802;-63
2024/04/11 06:47:43;;;;;;;2.93;1.57;;;;;;;;;;5423854;26;20223;-62
2024/04/11 06:50:09;;;;;;;3.60;1.93;;;;;;;;;;5432296;26;20626;-62
2024/04/11 06:52:36;;;;;;;3.10;1.90;;;;;;;;;;5446329;26;20226;-62
2024/04/11 06:55:03;;;;;;;3.20;1.67;;;;;;;;;;5411554;26;20227;-62
2024/04/11 06:57:36;;;;;;;5.10;2.10;;;;;;;;;;5438784;26;20919;-63
2024/04/11 07:00:03;;;;;;;4.10;2.13;;;;;;;;;;5414121;26;20265;-62
2024/04/11 07:02:30;;;;;;;3.73;2.30;;;;;;;;;;5421834;26;20273;-63
2024/04/11 07:05:01;;;;;;;3.93;2.00;;;;;;;;;;5435027;26;20618;-62
2024/04/11 07:07:28;;;;;;;4.03;1.93;;;;;;;;;;5423033;26;20585;-63
2024/04/11 07:09:55;;;;;;;4.63;2.00;;;;;;;;;;5432900;26;20229;-62
2024/04/11 07:12:28;;;;;;;3.07;2.00;;;;;;;;;;5446199;26;20230;-62
2024/04/11 07:14:55;;;;;;;3.90;2.30;;;;;;;;;;5413070;26;20764;-63
2024/04/11 07:17:27;;;;;;;2.50;1.80;;;;;;;;;;5430242;26;20276;-62
2024/04/11 07:19:54;;;;;;;3.27;2.10;;;;;;;;;;5439631;26;20268;-63
2024/04/11 07:22:24;;;;;;;5.50;2.10;;;;;;;;;;5412585;26;20222;-62
2024/04/11 07:24:50;;;;;;;5.10;2.33;;;;;;;;;;5410874;26;20227;-63
2024/04/11 07:27:17;;;;;;;3.80;1.80;;;;;;;;;;5436996;26;20273;-62
2024/04/11 07:29:45;;;;;;;4.90;2.00;;;;;;;;;;5431476;26;20686;-63
2024/04/11 07:32:12;;;;;;;4.50;2.30;;;;;;;;;;5442980;26;20273;-63
2024/04/11 07:34:38;;;;;;;7.00;2.57;;;;;;;;;;5447230;26;20296;-63
2024/04/11 07:37:05;;;;;;;5.37;2.17;;;;;;;;;;5440204;26;20285;-62
2024/04/11 07:39:32;;;;;;;4.73;1.70;;;;;;;;;;5411013;26;20331;-63
2024/04/11 07:42:18;;;;;;;4.70;2.00;;;;;;;;;;5429176;26;20237;-62
2024/04/11 07:44:44;;;;;;;5.07;1.90;;;;;;;;;;5410930;26;20254;-62
2024/04/11 07:47:13;;;;;;;3.30;2.07;;;;;;;;;;5417886;26;20586;-62
2024/04/11 07:49:40;;;;;;;4.73;1.90;;;;;;;;;;5414809;26;20765;-62
2024/04/11 07:52:10;;;;;;;4.10;2.13;;;;;;;;;;5430152;26;20561;-62
2024/04/11 07:54:36;;;;;;;8.23;2.13;;;;;;;;;;5413466;26;20621;-63
2024/04/11 07:57:02;;;;;;;2.63;1.90;;;;;;;;;;5436638;26;20217;-62
2024/04/11 07:59:28;;;;;;;3.27;2.50;;;;;;;;;;5434795;26;20227;-62
2024/04/11 08:01:54;;;;;;;5.37;2.23;;;;;;;;;;5427629;26;20229;-62
2024/04/11 08:04:21;;;;;;;2.57;1.80;;;;;;;;;;5436878;26;20234;-63
2024/04/11 08:06:47;;;;;;;7.03;2.20;;;;;;;;;;5425307;26;20660;-62
2024/04/11 08:09:13;;;;;;;2.27;1.77;;;;;;;;;;5447869;26;20230;-62
2024/04/11 08:11:39;;;;;;;4.23;2.03;;;;;;;;;;5445884;26;20234;-61
2024/04/11 08:14:05;;;;;;;4.50;2.00;;;;;;;;;;5448256;26;20712;-63
2024/04/11 08:16:36;;;;;;;6.70;2.93;;;;;;;;;;5428711;26;20233;-62
2024/04/11 08:19:04;;;;;;;3.47;1.90;;;;;;;;;;5439194;26;20237;-62
2024/04/11 08:21:30;;;;;;;7.70;2.30;;;;;;;;;;5441190;26;20325;-62
2024/04/11 08:24:00;;;;;;;3.50;2.07;;;;;;;;;;5431125;26;20860;-62
2024/04/11 08:26:26;;;;;;;8.13;2.10;;;;;;;;;;5440849;26;20229;-62
2024/04/11 08:28:52;;;;;;;7.90;2.47;;;;;;;;;;5446883;26;20233;-62
2024/04/11 08:31:19;;;;;;;3.73;2.00;;;;;;;;;;5425665;26;21016;-63
2024/04/11 08:33:45;;;;;;;4.87;2.00;;;;;;;;;;5448218;26;20237;-61
2024/04/11 08:36:12;;;;;;;4.53;2.33;;;;;;;;;;5444258;26;20595;-62
2024/04/11 08:38:42;;;;;;;4.27;2.10;;;;;;;;;;5433010;26;20336;-62
2024/04/11 08:41:15;;;;;;;8.70;2.70;;;;;;;;;;5414183;26;20301;-64
2024/04/11 08:43:45;;;;;;;5.40;2.20;;;;;;;;;;5427728;26;20329;-62
2024/04/11 08:46:11;;;;;;;5.87;2.10;;;;;;;;;;5428211;26;20227;-63
2024/04/11 08:48:38;;;;;;;4.47;2.33;;;;;;;;;;5439614;26;20235;-62
2024/04/11 08:51:09;;;;;;;6.87;2.33;;;;;;;;;;5423215;26;20234;-61
2024/04/11 08:53:36;;;;;;;3.63;1.77;;;;;;;;;;5447046;26;20271;-62
2024/04/11 08:56:03;;;;;;;4.80;2.10;;;;;;;;;;5426378;26;20616;-62
2024/04/11 08:58:29;;;;;;;5.33;2.30;;;;;;;;;;5449249;26;20260;-61
2024/04/11 09:00:59;;;;;;;4.53;2.00;;;;;;;;;;5449379;26;20218;-61
2024/04/11 09:03:26;;;;;;;4.43;1.87;;;;;;;;;;5415194;26;20231;-62
2024/04/11 09:05:52;;;;;;;4.63;1.80;;;;;;;;;;5412865;26;20614;-62
2024/04/11 09:08:19;;;;;;;4.27;1.70;;;;;;;;;;5421401;26;20327;-63
2024/04/11 09:10:46;;;;;;;3.83;2.10;;;;;;;;;;5448392;26;20293;-63
2024/04/11 09:13:18;;;;;;;4.37;1.83;;;;;;;;;;5443584;26;20301;-62
2024/04/11 09:15:45;;;;;;;3.63;1.80;;;;;;;;;;5441149;26;20272;-62
2024/04/11 09:18:20;;;;;;;5.73;2.17;;;;;;;;;;5446674;26;20330;-62
2024/04/11 09:20:46;;;;;;;4.82;2.20;;;;;;;;;;5416745;26;20885;-62
2024/04/11 09:23:19;;;;;;;4.50;1.80;;;;;;;;;;5439619;26;20217;-61
2024/04/11 09:25:46;;;;;;;3.93;1.87;;;;;;;;;;5424847;26;20312;-63
2024/04/11 09:28:12;;;;;;;6.53;2.00;;;;;;;;;;5416374;26;20238;-63
2024/04/11 09:30:39;;;;;;;4.43;1.90;;;;;;;;;;5438987;26;20766;-63
2024/04/11 09:33:10;;;;;;;5.40;1.87;;;;;;;;;;5447674;26;20268;-63
2024/04/11 09:35:41;;;;;;;3.10;2.00;;;;;;;;;;5448407;26;20237;-62
2024/04/11 09:38:12;;;;;;;7.03;2.10;;;;;;;;;;5449148;26;20342;-63
2024/04/11 09:40:42;;;;;;;5.87;2.37;;;;;;;;;;5414249;26;20234;-62
2024/04/11 09:43:10;;;;;;;4.37;2.27;;;;;;;;;;5434427;26;20359;-63
2024/04/11 09:45:36;;;;;;;5.80;1.90;;;;;;;;;;5424831;26;20592;-63
2024/04/11 09:48:06;;;;;;;4.13;1.83;;;;;;;;;;5441974;26;20962;-63
2024/04/11 09:50:36;;;;;;;2.37;1.93;;;;;;;;;;5413732;26;20282;-64
2024/04/11 09:53:02;;;;;;;2.90;1.70;;;;;;;;;;5433671;26;20398;-64
2024/04/11 09:55:34;;;;;;;4.20;1.63;;;;;;;;;;5430320;26;21000;-63
2024/04/11 09:58:01;;;;;;;10.87;2.77;;;;;;;;;;5440432;26;20726;-63
2024/04/11 10:00:48;;;;;;;4.40;1.80;;;;;;;;;;5422068;26;20230;-63
2024/04/11 10:03:18;;;;;;;5.63;2.00;;;;;;;;;;5425310;26;20278;-63
2024/04/11 10:05:46;;;;;;;6.23;1.90;;;;;;;;;;5424779;26;20233;-63
2024/04/11 10:08:21;;;;;;;4.90;1.90;;;;;;;;;;5443868;26;20620;-63
2024/04/11 10:10:52;;;;;;;4.17;1.90;;;;;;;;;;5410668;26;20235;-63
2024/04/11 10:13:21;;;;;;;2.03;1.43;;;;;;;;;;5417183;26;20233;-63
2024/04/11 10:15:51;;;;;;;4.17;2.07;;;;;;;;;;5435808;26;20700;-63
2024/04/11 10:18:17;;;;;;;3.73;2.00;;;;;;;;;;5444375;26;20228;-64
2024/04/11 10:21:02;;;;;;;7.13;1.93;;;;;;;;;;5445766;26;20576;-63
2024/04/11 10:23:37;;;;;;;4.30;2.10;;;;;;;;;;5412727;26;20233;-63
2024/04/11 10:26:06;;;;;;;3.97;1.70;;;;;;;;;;5411546;26;20725;-64
2024/04/11 10:28:43;;;;;;;2.53;1.70;;;;;;;;;;5444738;26;20230;-62
2024/04/11 10:31:17;;;;;;;5.70;2.03;;;;;;;;;;5447634;26;20232;-64
2024/04/11 10:34:10;;;;;;;4.07;1.70;;;;;;;;;;5411080;26;20273;-64
2024/04/11 10:36:32;;;;;;;6.13;1.80;;;;;;;;;;5417080;26;20278;-64
2024/04/11 10:38:59;;;;;;;4.13;1.80;;;;;;;;;;5417915;26;20235;-64
2024/04/11 10:41:26;;;;;;;4.90;2.20;;;;;;;;;;5431579;26;20789;-64
2024/04/11 10:43:52;;;;;;;3.40;1.93;;;;;;;;;;5417671;26;21277;-63
2024/04/11 10:46:21;;;;;;;5.20;1.80;;;;;;;;;;5423038;26;20234;-64
2024/04/11 10:48:49;;;;;;;3.40;2.13;;;;;;;;;;5412183;26;20227;-64
2024/04/11 10:51:15;;;;;;;5.00;2.17;;;;;;;;;;5427047;26;20235;-65
2024/04/11 10:53:47;;;;;;;2.77;1.67;;;;;;;;;;5418949;26;20270;-64
2024/04/11 10:56:23;;;;;;;5.40;1.90;;;;;;;;;;5436197;26;20335;-64
2024/04/11 10:58:53;;;;;;;5.03;1.60;;;;;;;;;;5436506;26;20581;-64
2024/04/11 11:01:26;;;;;;;6.73;2.13;;;;;;;;;;5433025;26;21105;-64
2024/04/11 11:03:57;;;;;;;5.23;2.00;;;;;;;;;;5430438;26;20227;-64
2024/04/11 11:06:24;;;;;;;5.00;1.60;;;;;;;;;;5439999;26;20239;-64
2024/04/11 11:08:54;;;;;;;5.77;2.20;;;;;;;;;;5448229;26;20234;-64
2024/04/11 11:11:21;;;;;;;3.00;1.43;;;;;;;;;;5434814;26;20239;-64
2024/04/11 11:13:52;;;;;;;4.50;1.80;;;;;;;;;;5412527;26;20332;-64
2024/04/11 11:16:21;;;;;;;5.40;1.80;;;;;;;;;;5431611;26;20555;-64
2024/04/11 11:18:48;;;;;;;5.47;1.63;;;;;;;;;;5411420;26;20231;-64
2024/04/11 11:21:16;;;;;;;5.30;1.40;;;;;;;;;;5419280;26;20238;-64
2024/04/11 11:23:45;;;;;;;3.17;1.70;;;;;;;;;;5451257;26;20218;-64
2024/04/11 11:26:20;;;;;;;2.73;1.50;;;;;;;;;;5448208;26;20246;-64
2024/04/11 11:28:46;;;;;;;3.50;1.60;;;;;;;;;;5448576;26;20752;-64
2024/04/11 11:31:20;;;;;;;5.80;1.90;;;;;;;;;;5449132;26;20235;-64
2024/04/11 11:33:49;;;;;;;3.10;1.70;;;;;;;;;;5426030;26;20246;-64
2024/04/11 11:36:17;;;;;;;2.47;1.60;;;;;;;;;;5434672;26;20775;-64
2024/04/11 11:38:44;;;;;;;3.60;1.50;;;;;;;;;;5425750;26;20266;-64
2024/04/11 11:41:15;;;;;;;2.27;1.70;;;;;;;;;;5443384;26;20992;-64
2024/04/11 11:43:43;;;;;;;2.23;1.37;;;;;;;;;;5447832;26;20269;-64
2024/04/11 11:46:28;;;;;;;3.93;1.57;;;;;;;;;;5434374;26;20275;-64
2024/04/11 11:48:57;;;;;;;5.70;2.73;;;;;;;;;;5424178;26;20694;-64
2024/04/11 11:51:30;;;;;;;2.47;1.53;;;;;;;;;;5441105;26;20342;-63
2024/04/11 11:54:00;;;;;;;4.27;1.63;;;;;;;;;;5435458;26;20734;-64
2024/04/11 11:56:31;;;;;;;1.97;1.43;;;;;;;;;;5419655;26;20222;-64
2024/04/11 11:59:02;;;;;;;3.57;1.43;;;;;;;;;;5447534;26;20261;-64
2024/04/11 12:01:29;;;;;;;2.90;1.63;;;;;;;;;;5448997;26;20235;-64
2024/04/11 12:03:59;;;;;;;2.73;1.93;;;;;;;;;;5435453;26;20332;-64
2024/04/11 12:06:33;;;;;;;3.67;1.57;;;;;;;;;;5423604;26;20271;-64
2024/04/11 12:09:00;;;;;;;2.40;1.47;;;;;;;;;;5414233;26;20277;-64
2024/04/11 12:11:29;;;;;;;4.57;1.50;;;;;;;;;;5415154;26;20309;-64
2024/04/11 12:14:02;;;;;;;3.77;1.97;;;;;;;;;;5429511;26;20258;-61
2024/04/11 12:16:38;;;;;;;7.47;2.03;;;;;;;;;;5425473;26;20573;-62
2024/04/11 12:19:04;;;;;;;3.70;1.30;;;;;;;;;;5439867;26;20310;-63
2024/04/11 12:21:34;;;;;;;4.40;1.40;;;;;;;;;;5429153;26;20238;-62
2024/04/11 12:24:00;;;;;;;2.93;1.63;;;;;;;;;;5433296;26;20300;-63
2024/04/11 12:26:29;;;;;;;6.73;1.80;;;;;;;;;;5420997;26;20237;-63
2024/04/11 12:28:56;;;;;;;3.43;1.77;;;;;;;;;;5420046;26;20278;-62
2024/04/11 12:31:26;;;;;;;6.73;2.00;;;;;;;;;;5426481;26;20290;-63
2024/04/11 12:33:56;;;;;;;6.47;1.73;;;;;;;;;;5435416;26;20284;-63
2024/04/11 12:36:56;;;;;;;6.37;2.57;;;;;;;;;;5424542;26;20374;-63
2024/04/11 12:39:21;;;;;;;4.43;1.80;;;;;;;;;;5430336;26;20279;-63
2024/04/11 12:41:50;;;;;;;6.00;1.80;;;;;;;;;;5431994;26;20289;-63
2024/04/11 12:44:23;;;;;;;4.40;2.03;;;;;;;;;;5446354;26;20336;-63
2024/04/11 12:46:52;;;;;;;8.23;1.93;;;;;;;;;;5439263;26;20676;-63
2024/04/11 12:49:25;;;;;;;2.83;1.60;;;;;;;;;;5445085;26;20242;-63
2024/04/11 12:51:55;;;;;;;4.33;1.57;;;;;;;;;;5422641;26;20235;-63
2024/04/11 12:54:26;;;;;;;5.80;1.80;;;;;;;;;;5424528;26;20235;-63
2024/04/11 12:56:53;;;;;;;6.83;1.73;;;;;;;;;;5425553;26;20510;-63
2024/04/11 12:59:30;;;;;;;3.73;1.90;;;;;;;;;;5413892;26;20278;-62
2024/04/11 13:01:56;;;;;;;2.37;1.40;;;;;;;;;;5436582;26;20282;-62
2024/04/11 13:04:32;;;;;;;5.13;2.00;;;;;;;;;;5412087;26;20432;-63
2024/04/11 13:07:10;;;;;;;4.10;1.83;;;;;;;;;;5426509;26;20246;-62
2024/04/11 13:09:48;;;;;;;3.53;2.00;;;;;;;;;;5425702;26;20817;-62
2024/04/11 13:12:18;;;;;;;2.37;1.77;;;;;;;;;;5422881;26;20240;-62
2024/04/11 13:14:55;;;;;;;3.47;1.83;;;;;;;;;;5423730;26;20230;-63
2024/04/11 13:17:23;;;;;;;2.93;1.83;;;;;;;;;;5418461;26;20293;-62
2024/04/11 13:19:49;;;;;;;6.57;2.73;;;;;;;;;;5431801;26;20276;-62
2024/04/11 13:22:15;;;;;;;5.57;2.10;;;;;;;;;;5430948;26;20237;-62
2024/04/11 13:24:45;;;;;;;4.40;2.10;;;;;;;;;;5419833;26;20567;-62
2024/04/11 13:27:16;;;;;;;3.20;2.20;;;;;;;;;;5417540;26;20237;-64
2024/04/11 13:29:48;;;;;;;2.97;1.87;;;;;;;;;;5416071;26;20236;-63
2024/04/11 13:32:16;;;;;;;4.17;2.20;;;;;;;;;;5418593;26;20318;-62
2024/04/11 13:37:37;;;;;;;2.47;1.83;;;;;;;;;;5420433;26;20768;-62
2024/04/11 13:42:52;;;;;;;3.33;2.50;;;;;;;;;;5425561;26;20276;-62
2024/04/11 13:45:22;;;;;;;4.23;2.23;;;;;;;;;;5426837;26;20234;-56
2024/04/11 13:47:48;;;;;;;3.13;2.30;;;;;;;;;;5429189;26;20241;-56
2024/04/11 13:53:04;;;;;;;4.83;2.30;;;;;;;;;;5424258;26;20334;-57
2024/04/11 13:55:30;;;;;;;7.13;2.23;;;;;;;;;;5423859;26;20279;-60
2024/04/11 13:57:59;;;;;;;7.90;2.70;;;;;;;;;;5438275;26;20742;-59
2024/04/11 14:00:26;;;;;;;9.97;3.13;;;;;;;;;;5435664;26;20234;-60
2024/04/11 14:02:58;;;;;;;7.00;3.37;;;;;;;;;;5447171;26;21021;-60
2024/04/11 14:05:45;;;;;;;5.30;2.47;;;;;;;;;;5420771;26;21171;-60
2024/04/11 14:08:18;;;;;;;11.03;3.50;;;;;;;;;;5420127;26;21059;-60
2024/04/11 14:10:45;;;;;;;6.60;2.67;;;;;;;;;;5418540;26;20797;-60
2024/04/11 14:13:15;;;;;;;5.87;2.80;;;;;;;;;;5416598;26;20593;-60
2024/04/11 14:15:44;;;;;;;6.13;2.70;;;;;;;;;;5421690;26;20290;-58
2024/04/11 14:18:17;;;;;;;11.10;3.50;;;;;;;;;;5423712;26;20816;-60
2024/04/11 14:20:50;;;;;;;6.97;3.00;;;;;;;;;;5416835;26;20720;-58
2024/04/11 14:23:47;;;;;;;7.83;3.00;;;;;;;;;;5420821;26;20237;-57
2024/04/11 14:26:09;;;;;;;7.67;4.07;;;;;;;;;;5418080;26;20219;-60
2024/04/11 14:28:35;;;;;;;6.77;3.00;;;;;;;;;;5439456;26;20542;-61
2024/04/11 14:31:08;;;;;;;10.13;3.23;;;;;;;;;;5439580;26;20330;-61
2024/04/11 14:33:44;;;;;;;5.60;3.40;;;;;;;;;;5423502;26;20359;-61
2024/04/11 14:38:48;;;;;;;6.47;3.23;;;;;;;;;;5435019;26;20226;-61
2024/04/11 14:41:16;;;;;;;6.93;3.77;;;;;;;;;;5431110;26;20230;-61
2024/04/11 14:43:48;;;;;;;5.23;3.80;;;;;;;;;;5419981;26;20312;-60
2024/04/11 14:46:14;;;;;;;4.77;3.27;;;;;;;;;;5415292;26;20231;-60
2024/04/11 14:48:40;;;;;;;5.33;3.10;;;;;;;;;;5425785;26;20269;-60
2024/04/11 14:51:15;;;;;;;5.47;3.13;;;;;;;;;;5447214;26;20280;-60
2024/04/11 14:53:46;;;;;;;7.07;3.30;;;;;;;;;;5422743;26;20349;-60
2024/04/11 14:56:24;;;;;;;4.67;3.10;;;;;;;;;;5446798;26;20248;-60
2024/04/11 14:58:53;;;;;;;4.90;3.60;;;;;;;;;;5439624;26;20282;-60
2024/04/11 15:01:31;;;;;;;8.33;3.00;;;;;;;;;;5417494;26;20219;-59
2024/04/11 15:04:20;;;;;;;6.40;3.47;;;;;;;;;;5427489;26;20276;-59